| time (UTC) | temp C | wind direction | speed KPH | gust KPH | rain 1hr cm | rain 24hr cm | rain mn cm | humidity % | barometer mb |
| 20260510020743 | 25 | 241 | 3.2 | 4.8 | 0.00 | 0.00 | 0.00 | 84 | 1016.6 |
| 20260510020243 | 25 | 205 | 0.0 | 1.6 | 0.00 | 0.00 | 0.00 | 83 | 1016.1 |
| 20260510015739 | 25 | 286 | 0.0 | 0.0 | 0.00 | 0.00 | 0.00 | 83 | 1016.2 |
| 20260510015235 | 25 | 286 | 0.0 | 0.0 | 0.00 | 0.00 | 0.00 | 82 | 1016.1 |
| 20260510014730 | 25 | 270 | 0.0 | 0.0 | 0.00 | 0.00 | 0.00 | 81 | 1015.8 |
| 20260510014228 | 25 | 271 | 0.0 | 0.0 | 0.00 | 0.00 | 0.00 | 80 | 1015.7 |
| 20260510013724 | 26 | 271 | 0.0 | 0.0 | 0.00 | 0.00 | 0.00 | 79 | 1015.7 |
| 20260510013219 | 26 | 271 | 0.0 | 1.6 | 0.00 | 0.00 | 0.00 | 78 | 1015.6 |
| 20260510012719 | 26 | 249 | 0.0 | 0.0 | 0.00 | 0.00 | 0.00 | 77 | 1015.7 |
| 20260510012215 | 26 | 250 | 0.0 | 1.6 | 0.00 | 0.00 | 0.00 | 77 | 1015.7 |
| 20260510011709 | 27 | 263 | 0.0 | 0.0 | 0.00 | 0.00 | 0.00 | 76 | 1015.6 |
| 20260510011205 | 27 | 230 | 0.0 | 1.6 | 0.00 | 0.00 | 0.00 | 73 | 1015.7 |
| 20260510010702 | 28 | 235 | 4.8 | 4.8 | 0.00 | 0.00 | 0.00 | 69 | 1015.7 |
| 20260510010158 | 28 | 269 | 0.0 | 1.6 | 0.00 | 0.00 | 0.00 | 64 | 1015.4 |
| 20260510005655 | 29 | 235 | 0.0 | 0.0 | 0.00 | 0.00 | 0.00 | 65 | 1015.4 |
| 20260510005152 | 29 | 267 | 0.0 | 4.8 | 0.00 | 0.00 | 0.00 | 66 | 1015.4 |
| 20260510004650 | 29 | 170 | 0.0 | 0.0 | 0.00 | 0.00 | 0.00 | 68 | 1014.8 |
| 20260510004148 | 29 | 194 | 0.0 | 0.0 | 0.00 | 0.00 | 0.00 | 71 | 1015.2 |
| 20260510003645 | 29 | 194 | 0.0 | 1.6 | 0.00 | 0.00 | 0.00 | 74 | 1015.0 |
| 20260510003140 | 30 | 194 | 0.0 | 0.0 | 0.00 | 0.00 | 0.00 | 73 | 1014.7 |
| 20260510002640 | 30 | 9 | 0.0 | 1.6 | 0.00 | 0.00 | 0.00 | 72 | 1014.7 |
| 20260510002138 | 30 | 210 | 0.0 | 1.6 | 0.00 | 0.00 | 0.00 | 71 | 1014.9 |
| 20260510001634 | 30 | 212 | 0.0 | 0.0 | 0.00 | 0.00 | 0.00 | 71 | 1014.7 |
| 20260510001133 | 30 | 216 | 0.0 | 0.0 | 0.00 | 0.00 | 0.00 | 71 | 1014.8 |
| 20260510000633 | 30 | 216 | 0.0 | 1.6 | 0.00 | 0.00 | 0.00 | 71 | 1014.8 |
| 20260510000131 | 30 | 200 | 0.0 | 1.6 | 0.00 | 0.00 | 0.00 | 71 | 1014.9 |
| 20260509235627 | 30 | 196 | 0.0 | 1.6 | 0.00 | 0.00 | 0.00 | 69 | 1014.5 |
| 20260509235124 | 30 | 197 | 0.0 | 1.6 | 0.00 | 0.00 | 0.00 | 70 | 1014.6 |
| 20260509234620 | 30 | 197 | 1.6 | 1.6 | 0.00 | 0.00 | 0.00 | 70 | 1014.6 |
| 20260509234118 | 30 | 198 | 0.0 | 0.0 | 0.00 | 0.00 | 0.00 | 69 | 1014.6 |
| 20260509233615 | 30 | 198 | 0.0 | 0.0 | 0.00 | 0.00 | 0.00 | 69 | 1014.6 |
| 20260509233112 | 30 | 198 | 0.0 | 0.0 | 0.00 | 0.00 | 0.00 | 69 | 1014.7 |
| 20260509232608 | 30 | 197 | 0.0 | 1.6 | 0.00 | 0.00 | 0.00 | 68 | 1014.6 |
| 20260509232106 | 30 | 198 | 0.0 | 0.0 | 0.00 | 0.00 | 0.00 | 68 | 1014.7 |
| 20260509231602 | 30 | 199 | 1.6 | 1.6 | 0.00 | 0.00 | 0.00 | 67 | 1014.8 |
| 20260509231100 | 31 | 167 | 0.0 | 1.6 | 0.00 | 0.00 | 0.00 | 68 | 1014.8 |
| 20260509230556 | 31 | 217 | 0.0 | 0.0 | 0.00 | 0.00 | 0.00 | 67 | 1014.6 |
| 20260509230054 | 31 | 217 | 0.0 | 0.0 | 0.00 | 0.00 | 0.00 | 66 | 1014.3 |
| 20260509225549 | 31 | 217 | 0.0 | 0.0 | 0.00 | 0.00 | 0.00 | 65 | 1014.2 |
| 20260509225044 | 31 | 217 | 0.0 | 0.0 | 0.00 | 0.00 | 0.00 | 65 | 1014.4 |
| 20260509224540 | 32 | 217 | 0.0 | 0.0 | 0.00 | 0.00 | 0.00 | 63 | 1014.4 |
| 20260509224037 | 32 | 217 | 0.0 | 0.0 | 0.00 | 0.00 | 0.00 | 65 | 1014.5 |
| 20260509223534 | 32 | 217 | 0.0 | 0.0 | 0.00 | 0.00 | 0.00 | 66 | 1014.5 |
| 20260509223032 | 31 | 217 | 0.0 | 1.6 | 0.00 | 0.00 | 0.00 | 65 | 1014.4 |
| 20260509222528 | 32 | 215 | 0.0 | 0.0 | 0.00 | 0.00 | 0.00 | 66 | 1014.2 |
| 20260509222024 | 33 | 232 | 1.6 | 1.6 | 0.00 | 0.00 | 0.00 | 62 | 1014.1 |
| 20260509221520 | 33 | 245 | 0.0 | 1.6 | 0.00 | 0.00 | 0.00 | 63 | 1014.2 |
| 20260509221016 | 33 | 245 | 0.0 | 1.6 | 0.00 | 0.00 | 0.00 | 62 | 1014.2 |
| 20260509220512 | 33 | 245 | 0.0 | 0.0 | 0.00 | 0.00 | 0.00 | 61 | 1014.2 |
| 20260509220009 | 32 | 245 | 0.0 | 1.6 | 0.00 | 0.00 | 0.00 | 65 | 1014.0 |
| 20260509215504 | 31 | 245 | 0.0 | 0.0 | 0.00 | 0.00 | 0.00 | 69 | 1013.9 |
| 20260509215001 | 32 | 245 | 0.0 | 0.0 | 0.00 | 0.00 | 0.00 | 67 | 1014.0 |
| 20260509214458 | 32 | 245 | 0.0 | 0.0 | 0.00 | 0.00 | 0.00 | 66 | 1013.9 |
| 20260509213955 | 33 | 245 | 0.0 | 0.0 | 0.00 | 0.00 | 0.00 | 62 | 1014.1 |
| 20260509213451 | 32 | 245 | 0.0 | 1.6 | 0.00 | 0.00 | 0.00 | 66 | 1013.9 |
| 20260509212948 | 31 | 244 | 0.0 | 0.0 | 0.00 | 0.00 | 0.00 | 67 | 1013.8 |
| 20260509212445 | 32 | 244 | 0.0 | 1.6 | 0.00 | 0.00 | 0.00 | 68 | 1013.9 |
| 20260509211942 | 31 | 244 | 0.0 | 0.0 | 0.00 | 0.00 | 0.00 | 68 | 1013.8 |
| 20260509211437 | 32 | 244 | 0.0 | 1.6 | 0.00 | 0.00 | 0.00 | 66 | 1013.7 |
| 20260509210934 | 32 | 244 | 0.0 | 0.0 | 0.00 | 0.00 | 0.00 | 67 | 1013.5 |
| 20260509210431 | 31 | 244 | 0.0 | 1.6 | 0.00 | 0.00 | 0.00 | 68 | 1013.6 |
| 20260509205927 | 31 | 244 | 0.0 | 0.0 | 0.00 | 0.00 | 0.00 | 68 | 1013.7 |
| 20260509205421 | 30 | 244 | 0.0 | 0.0 | 0.00 | 0.00 | 0.00 | 69 | 1013.7 |
| 20260509204917 | 30 | 264 | 0.0 | 0.0 | 0.00 | 0.00 | 0.00 | 71 | 1013.7 |
| 20260509204414 | 31 | 264 | 0.0 | 1.6 | 0.00 | 0.00 | 0.00 | 69 | 1013.7 |
| 20260509203911 | 31 | 339 | 0.0 | 0.0 | 0.00 | 0.00 | 0.00 | 70 | 1013.6 |
| 20260509203407 | 31 | 341 | 0.0 | 1.6 | 0.00 | 0.00 | 0.00 | 69 | 1013.6 |
| 20260509202904 | 31 | 338 | 1.6 | 3.2 | 0.00 | 0.00 | 0.00 | 68 | 1013.6 |
| 20260509202400 | 31 | 332 | 0.0 | 3.2 | 0.00 | 0.00 | 0.00 | 68 | 1013.4 |
| 20260509201855 | 32 | 260 | 4.8 | 4.8 | 0.00 | 0.00 | 0.00 | 65 | 1013.5 |
| 20260509201350 | 33 | 305 | 0.0 | 0.0 | 0.00 | 0.00 | 0.00 | 63 | 1013.5 |
| 20260509200848 | 32 | 288 | 1.6 | 3.2 | 0.00 | 0.00 | 0.00 | 64 | 1013.6 |
| 20260509200342 | 33 | 314 | 0.0 | 3.2 | 0.00 | 0.00 | 0.00 | 66 | 1013.6 |
| 20260509195840 | 32 | 298 | 0.0 | 1.6 | 0.00 | 0.00 | 0.00 | 65 | 1013.6 |
| 20260509195340 | 32 | 204 | 0.0 | 1.6 | 0.00 | 0.00 | 0.00 | 67 | 1013.8 |
| 20260509194839 | 32 | 260 | 1.6 | 3.2 | 0.00 | 0.00 | 0.00 | 67 | 1014.2 |
| 20260509194336 | 32 | 225 | 0.0 | 0.0 | 0.00 | 0.00 | 0.00 | 66 | |
| 20260509193832 | 31 | 293 | 0.0 | 1.6 | 0.00 | 0.00 | 0.00 | 67 | |
| 20260509193327 | 31 | 252 | 0.0 | 0.0 | 0.00 | 0.00 | 0.00 | 69 | |
| 20260509192823 | 32 | 254 | 0.0 | 0.0 | 0.00 | 0.00 | 0.00 | 67 | |
| 20260509192319 | 32 | 255 | 0.0 | 1.6 | 0.00 | 0.00 | 0.00 | 65 | |
| 20260509191815 | 33 | 113 | 1.6 | 3.2 | 0.00 | 0.00 | 0.00 | 64 | |
| 20260509191311 | 33 | 232 | 0.0 | 1.6 | 0.00 | 0.00 | 0.00 | 63 | |
| 20260509190806 | 33 | 317 | 0.0 | 1.6 | 0.00 | 0.00 | 0.00 | 66 | |
| 20260509190304 | 33 | 253 | 1.6 | 3.2 | 0.00 | 0.00 | 0.00 | 64 | |
| 20260509185801 | 32 | 286 | 0.0 | 1.6 | 0.00 | 0.00 | 0.00 | 65 | |
| 20260509185257 | 32 | 330 | 0.0 | 1.6 | 0.00 | 0.00 | 0.00 | 69 | |
| 20260509184755 | 31 | 224 | 0.0 | 0.0 | 0.00 | 0.00 | 0.00 | 70 | |
| 20260509184252 | 31 | 261 | 1.6 | 1.6 | 0.00 | 0.00 | 0.00 | 70 | |
| 20260509183748 | 32 | 246 | 0.0 | 1.6 | 0.00 | 0.00 | 0.00 | 69 | |
| 20260509183244 | 31 | 276 | 0.0 | 1.6 | 0.00 | 0.00 | 0.00 | 70 | |
| 20260509182739 | 31 | 7 | 0.0 | 1.6 | 0.00 | 0.00 | 0.00 | 72 | |
| 20260509182237 | 30 | 82 | 0.0 | 1.6 | 0.00 | 0.00 | 0.00 | 74 | |
| 20260509181734 | 30 | 339 | 0.0 | 0.0 | 0.00 | 0.00 | 0.00 | 73 | |
| 20260509181232 | 31 | 344 | 1.6 | 1.6 | 0.00 | 0.00 | 0.00 | 73 | |
| 20260509180729 | 30 | 268 | 0.0 | 1.6 | 0.00 | 0.00 | 0.00 | 75 | |
| 20260509180225 | 30 | 253 | 0.0 | 0.0 | 0.00 | 0.00 | 0.00 | 76 | |
| 20260509175721 | 29 | 241 | 1.6 | 3.2 | 0.00 | 0.00 | 0.00 | 78 | |
| 20260509175218 | 30 | 250 | 0.0 | 0.0 | 0.00 | 0.00 | 0.00 | 76 | |
| 20260509174714 | 30 | 209 | 1.6 | 4.8 | 0.00 | 0.00 | 0.00 | 77 | |
| 20260509174209 | 30 | 178 | 0.0 | 1.6 | 0.00 | 0.00 | 0.00 | 76 | |
| 20260509173706 | 30 | 276 | 0.0 | 1.6 | 0.00 | 0.00 | 0.00 | 76 | |
| 20260509173201 | 30 | 324 | 1.6 | 1.6 | 0.00 | 0.00 | 0.00 | 77 | |
| 20260509172658 | 30 | 249 | 0.0 | 1.6 | 0.00 | 0.00 | 0.00 | 78 | |
| 20260509172154 | 30 | 56 | 4.8 | 11.3 | 0.00 | 0.00 | 0.00 | 79 | |
| 20260509171649 | 30 | 236 | 1.6 | 1.6 | 0.00 | 0.00 | 0.00 | 77 | |
| 20260509171146 | 30 | 236 | 0.0 | 3.2 | 0.00 | 0.00 | 0.00 | 77 | |
| 20260509170643 | 30 | 259 | 1.6 | 1.6 | 0.00 | 0.00 | 0.00 | 76 | |
| 20260509170139 | 29 | 240 | 0.0 | 3.2 | 0.00 | 0.00 | 0.00 | 80 | |
| 20260509165637 | 28 | 230 | 0.0 | 1.6 | 0.00 | 0.00 | 0.00 | 82 | |
| 20260509165133 | 28 | 233 | 0.0 | 1.6 | 0.00 | 0.00 | 0.00 | 83 | |
| 20260509164629 | 27 | 273 | 0.0 | 1.6 | 0.00 | 0.00 | 0.00 | 84 | |
| 20260509164125 | 27 | 358 | 1.6 | 3.2 | 0.00 | 0.00 | 0.00 | 84 | |
| 20260509163623 | 27 | 237 | 0.0 | 1.6 | 0.00 | 0.00 | 0.00 | 83 | |
| 20260509163118 | 27 | 236 | 0.0 | 1.6 | 0.00 | 0.00 | 0.00 | 84 | |
| 20260509162616 | 27 | 247 | 0.0 | 0.0 | 0.00 | 0.00 | 0.00 | 84 | |
| 20260509162112 | 27 | 249 | 0.0 | 0.0 | 0.00 | 0.00 | 0.00 | 85 | |
| 20260509161608 | 27 | 266 | 0.0 | 0.0 | 0.00 | 0.00 | 0.00 | 85 | |
| 20260509161109 | 27 | 279 | 0.0 | 1.6 | 0.00 | 0.00 | 0.00 | 86 | |
| 20260509160605 | 27 | 264 | 0.0 | 1.6 | 0.00 | 0.00 | 0.00 | 86 | |
| 20260509160100 | 27 | 282 | 0.0 | 0.0 | 0.00 | 0.00 | 0.00 | 87 | |
| 20260509155557 | 27 | 313 | 0.0 | 0.0 | 0.00 | 0.00 | 0.00 | 88 | |
| 20260509155053 | 26 | 268 | 0.0 | 1.6 | 0.00 | 0.00 | 0.00 | 89 | |
| 20260509154549 | 26 | 1 | 0.0 | 1.6 | 0.00 | 0.00 | 0.00 | 90 | |
| 20260509154047 | 25 | 0 | 0.0 | 0.0 | 0.00 | 0.00 | 0.00 | 91 | |
| 20260509153543 | 26 | 357 | 0.0 | 1.6 | 0.00 | 0.00 | 0.00 | 91 | |
| 20260509153040 | 26 | 334 | 0.0 | 0.0 | 0.00 | 0.00 | 0.00 | 91 | |
| 20260509152536 | 26 | 315 | 0.0 | 0.0 | 0.00 | 0.00 | 0.00 | 92 | |
| 20260509152034 | 26 | 349 | 0.0 | 1.6 | 0.00 | 0.00 | 0.00 | 93 | |
| 20260509151529 | 25 | 45 | 0.0 | 0.0 | 0.00 | 0.00 | 0.00 | 94 | |
| 20260509151028 | 25 | 46 | 0.0 | 1.6 | 0.00 | 0.00 | 0.00 | 94 | |
| 20260509150525 | 25 | 25 | 0.0 | 3.2 | 0.00 | 0.00 | 0.00 | 94 | |
| 20260509150023 | 25 | 323 | 0.0 | 0.0 | 0.00 | 0.00 | 0.00 | 94 | |
| 20260509145518 | 25 | 282 | 0.0 | 0.0 | 0.00 | 0.00 | 0.00 | 95 | |
| 20260509145013 | 25 | 20 | 0.0 | 0.0 | 0.00 | 0.00 | 0.00 | 95 | |
| 20260509144511 | 25 | 355 | 0.0 | 0.0 | 0.00 | 0.00 | 0.00 | 96 | |
| 20260509144008 | 25 | 355 | 0.0 | 1.6 | 0.00 | 0.00 | 0.00 | 97 | |
| 20260509143505 | 25 | 322 | 0.0 | 0.0 | 0.00 | 0.00 | 0.00 | 97 | |
| 20260509143003 | 24 | 322 | 0.0 | 0.0 | 0.00 | 0.00 | 0.00 | 98 | |
| 20260509142458 | 24 | 325 | 0.0 | 0.0 | 0.00 | 0.00 | 0.00 | 98 | |
| 20260509141954 | 24 | 325 | 0.0 | 0.0 | 0.00 | 0.00 | 0.00 | 99 | |
| 20260509141450 | 24 | 326 | 0.0 | 0.0 | 0.00 | 0.00 | 0.00 | 99 | |
| 20260509140948 | 24 | 320 | 0.0 | 0.0 | 0.00 | 0.00 | 0.00 | 99 | |
| 20260509140443 | 24 | 320 | 0.0 | 0.0 | 0.00 | 0.00 | 0.00 | 99 | |
| 20260509135942 | 23 | 321 | 0.0 | 0.0 | 0.00 | 0.00 | 0.00 | 99 | |
| 20260509135439 | 23 | 321 | 0.0 | 0.0 | 0.00 | 0.00 | 0.00 | 99 | |
| 20260509134936 | 23 | 322 | 0.0 | 0.0 | 0.00 | 0.00 | 0.00 | 99 | |
| 20260509134434 | 23 | 309 | 0.0 | 0.0 | 0.00 | 0.00 | 0.00 | 99 | |
| 20260509133931 | 23 | 310 | 0.0 | 0.0 | 0.00 | 0.00 | 0.00 | 99 | |
| 20260509133427 | 23 | 309 | 0.0 | 0.0 | 0.00 | 0.00 | 0.00 | 99 | |
| 20260509132926 | 23 | 311 | 0.0 | 0.0 | 0.00 | 0.00 | 0.00 | 99 | |
| 20260509132424 | 23 | 311 | 0.0 | 0.0 | 0.00 | 0.00 | 0.00 | 99 | |
| 20260509131920 | 23 | 329 | 0.0 | 1.6 | 0.00 | 0.00 | 0.00 | 99 | |
| 20260509131418 | 23 | 327 | 0.0 | 0.0 | 0.00 | 0.00 | 0.00 | 99 | |
| 20260509130914 | 23 | 260 | 0.0 | 0.0 | 0.00 | 0.00 | 0.00 | 99 | |
| 20260509130409 | 23 | 303 | 0.0 | 0.0 | 0.00 | 0.00 | 0.00 | 99 | |
| 20260509125907 | 23 | 303 | 0.0 | 0.0 | 0.00 | 0.00 | 0.00 | 99 | |
| 20260509125403 | 22 | 303 | 0.0 | 0.0 | 0.00 | 0.00 | 0.00 | 99 | |
| 20260509124859 | 22 | 303 | 0.0 | 0.0 | 0.00 | 0.00 | 0.00 | 99 | |
| 20260509124356 | 22 | 304 | 0.0 | 0.0 | 0.00 | 0.00 | 0.00 | 99 | |
| 20260509123854 | 22 | 304 | 0.0 | 0.0 | 0.00 | 0.00 | 0.00 | 99 | |
| 20260509123351 | 22 | 304 | 0.0 | 0.0 | 0.00 | 0.00 | 0.00 | 99 | |
| 20260509122847 | 22 | 304 | 0.0 | 0.0 | 0.00 | 0.00 | 0.00 | 99 | |
| 20260509122344 | 22 | 304 | 0.0 | 0.0 | 0.00 | 0.00 | 0.00 | 99 | |
| 20260509121841 | 22 | 303 | 0.0 | 0.0 | 0.00 | 0.00 | 0.00 | 99 | |
| 20260509121338 | 22 | 303 | 0.0 | 0.0 | 0.00 | 0.00 | 0.00 | 99 | |
| 20260509120836 | 22 | 303 | 0.0 | 0.0 | 0.00 | 0.00 | 0.00 | 99 | |
| 20260509120333 | 22 | 303 | 0.0 | 0.0 | 0.00 | 0.00 | 0.00 | 99 | |
| 20260509115831 | 22 | 303 | 0.0 | 0.0 | 0.00 | 0.00 | 0.00 | 99 | |
| 20260509115328 | 22 | 303 | 0.0 | 0.0 | 0.00 | 0.00 | 0.00 | 99 | |
| 20260509114826 | 22 | 303 | 0.0 | 0.0 | 0.00 | 0.00 | 0.00 | 99 | 1014.5 |
| 20260509114325 | 22 | 303 | 0.0 | 0.0 | 0.00 | 0.00 | 0.00 | 99 | 1014.5 |
| 20260509113824 | 22 | 303 | 0.0 | 0.0 | 0.00 | 0.00 | 0.00 | 99 | 1014.5 |
| 20260509113320 | 22 | 303 | 0.0 | 0.0 | 0.00 | 0.00 | 0.00 | 99 | 1014.5 |
| 20260509112817 | 22 | 304 | 0.0 | 0.0 | 0.00 | 0.00 | 0.00 | 99 | 1014.5 |
| 20260509112314 | 22 | 304 | 0.0 | 0.0 | 0.00 | 0.00 | 0.00 | 99 | 1014.5 |
| 20260509111811 | 22 | 304 | 0.0 | 0.0 | 0.00 | 0.00 | 0.00 | 99 | 1014.5 |
| 20260509111308 | 22 | 304 | 0.0 | 0.0 | 0.00 | 0.00 | 0.00 | 99 | 1014.5 |
| 20260509110805 | 22 | 304 | 0.0 | 0.0 | 0.00 | 0.00 | 0.00 | 99 | 1014.5 |
| 20260509110302 | 22 | 304 | 0.0 | 0.0 | 0.00 | 0.00 | 0.00 | 99 | 1014.5 |
| 20260509105800 | 22 | 304 | 0.0 | 0.0 | 0.00 | 0.00 | 0.00 | 99 | 1014.5 |
| 20260509105258 | 22 | 304 | 0.0 | 0.0 | 0.00 | 0.00 | 0.00 | 99 | 1014.6 |
| 20260509104754 | 22 | 304 | 0.0 | 0.0 | 0.00 | 0.00 | 0.00 | 99 | 1014.5 |
| 20260509104251 | 22 | 304 | 0.0 | 0.0 | 0.00 | 0.00 | 0.00 | 99 | 1014.4 |
| 20260509103749 | 22 | 303 | 0.0 | 0.0 | 0.00 | 0.00 | 0.00 | 99 | 1014.5 |
| 20260509103246 | 22 | 303 | 0.0 | 0.0 | 0.00 | 0.00 | 0.00 | 99 | 1014.5 |
| 20260509102744 | 22 | 303 | 0.0 | 0.0 | 0.00 | 0.00 | 0.00 | 99 | 1014.4 |
| 20260509102241 | 22 | 303 | 0.0 | 0.0 | 0.00 | 0.00 | 0.00 | 99 | 1014.0 |
| 20260509101737 | 22 | 303 | 0.0 | 0.0 | 0.00 | 0.00 | 0.00 | 99 | 1013.7 |
| 20260509101233 | 22 | 303 | 0.0 | 0.0 | 0.00 | 0.00 | 0.00 | 99 | 1013.7 |
| 20260509100731 | 22 | 303 | 0.0 | 0.0 | 0.00 | 0.00 | 0.00 | 99 | 1013.7 |
| 20260509100228 | 22 | 303 | 0.0 | 0.0 | 0.00 | 0.00 | 0.00 | 99 | 1013.5 |
| 20260509095725 | 22 | 303 | 0.0 | 0.0 | 0.00 | 0.00 | 0.00 | 99 | 1013.4 |
| 20260509095222 | 22 | 303 | 0.0 | 0.0 | 0.00 | 0.00 | 0.00 | 99 | 1013.2 |
| 20260509094719 | 22 | 303 | 0.0 | 0.0 | 0.00 | 0.00 | 0.00 | 99 | 1013.4 |
| 20260509094216 | 22 | 303 | 0.0 | 0.0 | 0.00 | 0.00 | 0.00 | 99 | 1013.6 |
| 20260509093714 | 22 | 303 | 0.0 | 0.0 | 0.00 | 0.00 | 0.00 | 99 | 1013.7 |
| 20260509093211 | 22 | 303 | 0.0 | 0.0 | 0.00 | 0.00 | 0.00 | 99 | 1013.7 |
| 20260509092709 | 22 | 303 | 0.0 | 0.0 | 0.00 | 0.00 | 0.00 | 99 | 1014.2 |
| 20260509092207 | 22 | 303 | 0.0 | 0.0 | 0.00 | 0.00 | 0.00 | 99 | 1014.4 |
| 20260509091705 | 22 | 303 | 0.0 | 0.0 | 0.00 | 0.00 | 0.00 | 99 | 1014.2 |
| 20260509091200 | 22 | 303 | 0.0 | 0.0 | 0.00 | 0.00 | 0.00 | 99 | 1014.2 |
| 20260509090658 | 22 | 303 | 0.0 | 0.0 | 0.00 | 0.00 | 0.00 | 99 | 1014.1 |
| 20260509090155 | 22 | 303 | 0.0 | 0.0 | 0.00 | 0.00 | 0.00 | 99 | 1014.2 |
| 20260509085653 | 22 | 303 | 0.0 | 0.0 | 0.00 | 0.00 | 0.00 | 99 | 1014.3 |
| 20260509085149 | 22 | 303 | 0.0 | 0.0 | 0.00 | 0.00 | 0.00 | 99 | 1014.4 |
| 20260509084646 | 22 | 303 | 0.0 | 0.0 | 0.00 | 0.00 | 0.00 | 99 | 1014.0 |
| 20260509084138 | 22 | 303 | 0.0 | 0.0 | 0.00 | 0.00 | 0.00 | 99 | 1014.2 |
| 20260509083635 | 22 | 303 | 0.0 | 0.0 | 0.00 | 0.00 | 0.00 | 99 | 1014.1 |
| 20260509083131 | 22 | 303 | 0.0 | 0.0 | 0.00 | 0.00 | 0.00 | 99 | 1014.1 |
| 20260509082629 | 22 | 303 | 0.0 | 0.0 | 0.00 | 0.00 | 0.00 | 99 | 1014.2 |
| 20260509082125 | 22 | 303 | 0.0 | 0.0 | 0.00 | 0.00 | 0.00 | 99 | 1014.0 |
| 20260509081622 | 22 | 304 | 0.0 | 0.0 | 0.00 | 0.00 | 0.00 | 99 | 1014.1 |
| 20260509081120 | 22 | 306 | 0.0 | 0.0 | 0.00 | 0.00 | 0.00 | 99 | 1013.8 |
| 20260509080618 | 22 | 285 | 0.0 | 0.0 | 0.00 | 0.00 | 0.00 | 99 | 1013.9 |
| 20260509080115 | 22 | 285 | 0.0 | 0.0 | 0.00 | 0.00 | 0.00 | 99 | 1013.8 |
| 20260509075613 | 22 | 285 | 0.0 | 0.0 | 0.00 | 0.00 | 0.00 | 99 | 1014.1 |
| 20260509075111 | 22 | 285 | 0.0 | 0.0 | 0.00 | 0.00 | 0.00 | 99 | 1014.1 |
| 20260509074607 | 22 | 254 | 0.0 | 1.6 | 0.00 | 0.00 | 0.00 | 99 | 1014.0 |
| 20260509074103 | 22 | 254 | 0.0 | 0.0 | 0.00 | 0.00 | 0.00 | 99 | 1014.1 |
| 20260509073601 | 22 | 253 | 0.0 | 0.0 | 0.00 | 0.00 | 0.00 | 99 | 1013.9 |
| 20260509073057 | 22 | 259 | 0.0 | 1.6 | 0.00 | 0.00 | 0.00 | 99 | 1014.3 |
| 20260509072553 | 22 | 245 | 0.0 | 1.6 | 0.00 | 0.00 | 0.00 | 99 | 1014.2 |
| 20260509072050 | 22 | 230 | 0.0 | 1.6 | 0.00 | 0.00 | 0.00 | 99 | 1014.3 |
| 20260509071547 | 22 | 261 | 0.0 | 0.0 | 0.00 | 0.00 | 0.00 | 99 | 1014.3 |
| 20260509071044 | 22 | 262 | 0.0 | 0.0 | 0.00 | 0.00 | 0.00 | 99 | 1014.3 |
| 20260509070541 | 22 | 262 | 0.0 | 0.0 | 0.00 | 0.00 | 0.00 | 99 | 1014.3 |
| 20260509070032 | 22 | 262 | 0.0 | 0.0 | 0.00 | 0.00 | 0.00 | 99 | 1014.4 |
| 20260509065527 | 22 | 262 | 0.0 | 0.0 | 0.00 | 0.00 | 0.00 | 99 | 1014.3 |
| 20260509065024 | 22 | 262 | 0.0 | 0.0 | 0.00 | 0.00 | 0.00 | 99 | 1014.5 |
| 20260509064521 | 22 | 262 | 0.0 | 0.0 | 0.00 | 0.00 | 0.00 | 99 | 1014.4 |
| 20260509064020 | 22 | 262 | 0.0 | 0.0 | 0.00 | 0.00 | 0.00 | 99 | 1014.3 |
| 20260509063514 | 22 | 262 | 0.0 | 0.0 | 0.00 | 0.00 | 0.00 | 99 | 1014.3 |
| 20260509063012 | 22 | 261 | 0.0 | 0.0 | 0.00 | 0.00 | 0.00 | 99 | 1014.5 |
| 20260509062509 | 22 | 262 | 0.0 | 0.0 | 0.00 | 0.00 | 0.00 | 99 | 1014.6 |
| 20260509062007 | 22 | 262 | 0.0 | 0.0 | 0.00 | 0.00 | 0.00 | 99 | 1014.7 |
| 20260509061504 | 22 | 263 | 0.0 | 0.0 | 0.00 | 0.00 | 0.00 | 99 | 1014.7 |
| 20260509061001 | 22 | 261 | 0.0 | 0.0 | 0.00 | 0.00 | 0.00 | 99 | 1014.8 |
| 20260509060458 | 22 | 261 | 0.0 | 0.0 | 0.00 | 0.00 | 0.00 | 99 | 1014.8 |
| 20260509055954 | 22 | 260 | 0.0 | 0.0 | 0.00 | 0.00 | 0.00 | 99 | 1014.9 |
| 20260509055449 | 22 | 235 | 0.0 | 0.0 | 0.00 | 0.00 | 0.00 | 99 | 1014.7 |
| 20260509054946 | 22 | 144 | 0.0 | 0.0 | 0.00 | 0.00 | 0.00 | 99 | 1014.6 |
| 20260509054442 | 22 | 101 | 0.0 | 1.6 | 0.00 | 0.00 | 0.00 | 99 | 1014.7 |
| 20260509053941 | 22 | 318 | 0.0 | 0.0 | 0.00 | 0.00 | 0.00 | 99 | 1014.9 |
| 20260509053438 | 22 | 317 | 0.0 | 0.0 | 0.00 | 0.00 | 0.00 | 99 | 1015.0 |
| 20260509052936 | 22 | 318 | 0.0 | 0.0 | 0.00 | 0.00 | 0.00 | 99 | 1014.9 |
| 20260509052433 | 22 | 345 | 0.0 | 1.6 | 0.00 | 0.00 | 0.00 | 99 | 1014.9 |
| 20260509051931 | 22 | 277 | 0.0 | 0.0 | 0.00 | 0.00 | 0.00 | 99 | 1014.8 |
| 20260509051428 | 22 | 247 | 0.0 | 0.0 | 0.00 | 0.00 | 0.00 | 99 | 1014.9 |
| 20260509050925 | 22 | 289 | 0.0 | 0.0 | 0.00 | 0.00 | 0.00 | 99 | 1014.9 |
| 20260509050422 | 22 | 291 | 0.0 | 0.0 | 0.00 | 0.00 | 0.00 | 99 | 1015.0 |
| 20260509045919 | 22 | 243 | 0.0 | 0.0 | 0.00 | 0.00 | 0.00 | 99 | 1015.0 |
| 20260509045416 | 22 | 279 | 0.0 | 0.0 | 0.00 | 0.00 | 0.00 | 99 | 1015.0 |
| 20260509044913 | 22 | 214 | 1.6 | 1.6 | 0.00 | 0.00 | 0.00 | 99 | 1015.1 |
| 20260509044410 | 22 | 112 | 0.0 | 0.0 | 0.00 | 0.00 | 0.00 | 99 | 1015.1 |
| 20260509043907 | 22 | 289 | 0.0 | 0.0 | 0.00 | 0.00 | 0.00 | 99 | 1015.1 |
| 20260509043403 | 22 | 333 | 1.6 | 3.2 | 0.00 | 0.00 | 0.00 | 99 | 1015.2 |
| 20260509042859 | 22 | 229 | 0.0 | 0.0 | 0.00 | 0.00 | 0.00 | 99 | 1015.0 |
| 20260509042356 | 22 | 249 | 0.0 | 0.0 | 0.00 | 0.00 | 0.00 | 99 | 1014.8 |
| 20260509041852 | 22 | 249 | 0.0 | 0.0 | 0.00 | 0.00 | 0.00 | 99 | 1015.0 |
| 20260509041349 | 22 | 339 | 1.6 | 3.2 | 0.00 | 0.00 | 0.00 | 99 | 1015.0 |
| 20260509040847 | 22 | 337 | 0.0 | 1.6 | 0.00 | 0.00 | 0.00 | 99 | 1015.0 |
| 20260509040345 | 22 | 341 | 0.0 | 0.0 | 0.00 | 0.00 | 0.00 | 99 | 1014.9 |
| 20260509035842 | 22 | 346 | 0.0 | 0.0 | 0.00 | 0.00 | 0.00 | 99 | 1014.9 |
| 20260509035339 | 22 | 318 | 0.0 | 1.6 | 0.00 | 0.00 | 0.00 | 99 | 1014.9 |
| 20260509034834 | 22 | 224 | 0.0 | 1.6 | 0.00 | 0.00 | 0.00 | 99 | 1014.8 |
| 20260509034333 | 22 | 230 | 0.0 | 0.0 | 0.00 | 0.00 | 0.00 | 99 | 1014.6 |
| 20260509033829 | 22 | 226 | 0.0 | 1.6 | 0.00 | 0.00 | 0.00 | 99 | 1014.7 |
| 20260509033327 | 22 | 338 | 0.0 | 3.2 | 0.00 | 0.00 | 0.00 | 99 | 1014.9 |
| 20260509032823 | 22 | 321 | 1.6 | 3.2 | 0.00 | 0.00 | 0.00 | 99 | 1014.9 |
| 20260509032320 | 22 | 203 | 0.0 | 1.6 | 0.00 | 0.00 | 0.00 | 99 | 1014.8 |
| 20260509031819 | 22 | 231 | 0.0 | 0.0 | 0.00 | 0.00 | 0.00 | 99 | 1014.9 |
| 20260509031315 | 22 | 223 | 0.0 | 1.6 | 0.00 | 0.00 | 0.00 | 99 | 1014.7 |
| 20260509030813 | 22 | 287 | 0.0 | 0.0 | 0.00 | 0.00 | 0.00 | 99 | 1014.8 |
| 20260509030311 | 22 | 231 | 1.6 | 1.6 | 0.00 | 0.00 | 0.00 | 99 | 1014.8 |
| 20260509025807 | 22 | 205 | 0.0 | 1.6 | 0.00 | 0.00 | 0.00 | 99 | 1014.6 |
| 20260509025306 | 22 | 316 | 1.6 | 3.2 | 0.00 | 0.00 | 0.00 | 99 | 1014.6 |
| 20260509024758 | 22 | 218 | 1.6 | 3.2 | 0.00 | 0.00 | 0.00 | 99 | 1014.7 |
| 20260509024255 | 22 | 317 | 0.0 | 0.0 | 0.00 | 0.00 | 0.00 | 99 | 1014.6 |
| 20260509023752 | 22 | 253 | 0.0 | 0.0 | 0.00 | 0.00 | 0.00 | 99 | 1014.6 |
| 20260509023249 | 22 | 251 | 0.0 | 0.0 | 0.00 | 0.00 | 0.00 | 99 | 1014.6 |
| 20260509022745 | 22 | 238 | 0.0 | 3.2 | 0.00 | 0.00 | 0.00 | 99 | 1014.5 |
| 20260509022243 | 22 | 228 | 0.0 | 3.2 | 0.00 | 0.00 | 0.00 | 99 | 1014.6 |
| 20260509021739 | 22 | 294 | 0.0 | 1.6 | 0.00 | 0.00 | 0.00 | 99 | 1014.1 |
| 20260509021237 | 22 | 341 | 0.0 | 1.6 | 0.00 | 0.00 | 0.00 | 99 | 1014.2 |